sensor_id;sensor_type;location;lat;lon;timestamp;P1;durP1;ratioP1;P2;durP2;ratioP2
69841;SDS011;57138;51.326;-0.068;2023-11-21T00:00:04;11.60;;;4.75;;
69841;SDS011;57138;51.326;-0.068;2023-11-21T00:02:38;11.05;;;4.72;;
69841;SDS011;57138;51.326;-0.068;2023-11-21T00:05:05;7.80;;;4.65;;
69841;SDS011;57138;51.326;-0.068;2023-11-21T00:07:33;16.55;;;4.90;;
69841;SDS011;57138;51.326;-0.068;2023-11-21T00:09:58;11.13;;;5.28;;
69841;SDS011;57138;51.326;-0.068;2023-11-21T00:12:24;9.35;;;4.72;;
69841;SDS011;57138;51.326;-0.068;2023-11-21T00:14:49;11.23;;;5.47;;
69841;SDS011;57138;51.326;-0.068;2023-11-21T00:17:15;12.50;;;5.13;;
69841;SDS011;57138;51.326;-0.068;2023-11-21T00:19:40;16.10;;;4.72;;
69841;SDS011;57138;51.326;-0.068;2023-11-21T00:22:07;16.55;;;5.93;;
69841;SDS011;57138;51.326;-0.068;2023-11-21T00:24:33;11.95;;;5.25;;
69841;SDS011;57138;51.326;-0.068;2023-11-21T00:26:59;11.65;;;5.05;;
69841;SDS011;57138;51.326;-0.068;2023-11-21T00:29:25;10.30;;;6.22;;
69841;SDS011;57138;51.326;-0.068;2023-11-21T00:31:50;10.45;;;5.65;;
69841;SDS011;57138;51.326;-0.068;2023-11-21T00:34:16;12.27;;;5.95;;
69841;SDS011;57138;51.326;-0.068;2023-11-21T00:36:41;12.07;;;7.18;;
69841;SDS011;57138;51.326;-0.068;2023-11-21T00:39:07;18.85;;;7.13;;
69841;SDS011;57138;51.326;-0.068;2023-11-21T00:41:32;15.85;;;6.75;;
69841;SDS011;57138;51.326;-0.068;2023-11-21T00:43:58;14.80;;;7.18;;
69841;SDS011;57138;51.326;-0.068;2023-11-21T00:46:24;11.43;;;7.25;;
69841;SDS011;57138;51.326;-0.068;2023-11-21T00:48:52;10.90;;;7.15;;
69841;SDS011;57138;51.326;-0.068;2023-11-21T00:51:19;15.27;;;7.68;;
69841;SDS011;57138;51.326;-0.068;2023-11-21T00:53:44;13.95;;;7.68;;
69841;SDS011;57138;51.326;-0.068;2023-11-21T00:56:10;19.75;;;9.43;;
69841;SDS011;57138;51.326;-0.068;2023-11-21T00:58:35;15.45;;;8.43;;
69841;SDS011;57138;51.326;-0.068;2023-11-21T01:01:00;22.70;;;9.02;;
69841;SDS011;57138;51.326;-0.068;2023-11-21T01:03:26;19.58;;;9.50;;
69841;SDS011;57138;51.326;-0.068;2023-11-21T01:05:51;20.98;;;10.18;;
69841;SDS011;57138;51.326;-0.068;2023-11-21T01:08:17;25.30;;;10.00;;
69841;SDS011;57138;51.326;-0.068;2023-11-21T01:10:42;20.15;;;10.02;;
69841;SDS011;57138;51.326;-0.068;2023-11-21T01:13:08;19.85;;;10.35;;
69841;SDS011;57138;51.326;-0.068;2023-11-21T01:15:33;14.90;;;9.70;;
69841;SDS011;57138;51.326;-0.068;2023-11-21T01:17:59;18.05;;;11.05;;
69841;SDS011;57138;51.326;-0.068;2023-11-21T01:20:25;20.23;;;11.95;;
69841;SDS011;57138;51.326;-0.068;2023-11-21T01:22:51;17.95;;;10.65;;
69841;SDS011;57138;51.326;-0.068;2023-11-21T01:25:16;18.33;;;11.30;;
69841;SDS011;57138;51.326;-0.068;2023-11-21T01:27:42;20.23;;;11.88;;
69841;SDS011;57138;51.326;-0.068;2023-11-21T01:30:08;22.90;;;11.20;;
69841;SDS011;57138;51.326;-0.068;2023-11-21T01:32:35;24.15;;;11.45;;
69841;SDS011;57138;51.326;-0.068;2023-11-21T01:35:01;22.30;;;12.00;;
69841;SDS011;57138;51.326;-0.068;2023-11-21T01:37:27;25.55;;;11.98;;
69841;SDS011;57138;51.326;-0.068;2023-11-21T01:39:53;20.25;;;11.93;;
69841;SDS011;57138;51.326;-0.068;2023-11-21T01:42:20;24.88;;;12.98;;
69841;SDS011;57138;51.326;-0.068;2023-11-21T01:44:46;24.92;;;13.48;;
69841;SDS011;57138;51.326;-0.068;2023-11-21T01:47:11;24.60;;;12.30;;
69841;SDS011;57138;51.326;-0.068;2023-11-21T01:49:39;23.80;;;13.07;;
69841;SDS011;57138;51.326;-0.068;2023-11-21T01:52:04;22.60;;;14.15;;
69841;SDS011;57138;51.326;-0.068;2023-11-21T01:54:31;23.50;;;12.15;;
69841;SDS011;57138;51.326;-0.068;2023-11-21T01:56:58;19.88;;;12.35;;
69841;SDS011;57138;51.326;-0.068;2023-11-21T01:59:27;21.60;;;12.07;;
69841;SDS011;57138;51.326;-0.068;2023-11-21T02:01:58;16.85;;;11.02;;
69841;SDS011;57138;51.326;-0.068;2023-11-21T02:04:24;17.88;;;11.18;;
69841;SDS011;57138;51.326;-0.068;2023-11-21T02:06:50;17.23;;;9.85;;
69841;SDS011;57138;51.326;-0.068;2023-11-21T02:09:16;18.88;;;10.40;;
69841;SDS011;57138;51.326;-0.068;2023-11-21T02:11:42;15.73;;;9.70;;
69841;SDS011;57138;51.326;-0.068;2023-11-21T02:14:08;16.42;;;8.73;;
69841;SDS011;57138;51.326;-0.068;2023-11-21T02:16:34;16.60;;;8.55;;
69841;SDS011;57138;51.326;-0.068;2023-11-21T02:19:00;14.88;;;7.85;;
69841;SDS011;57138;51.326;-0.068;2023-11-21T02:21:26;12.55;;;6.53;;
69841;SDS011;57138;51.326;-0.068;2023-11-21T02:23:53;11.23;;;6.43;;
69841;SDS011;57138;51.326;-0.068;2023-11-21T02:26:18;11.35;;;5.82;;
69841;SDS011;57138;51.326;-0.068;2023-11-21T02:28:45;10.95;;;5.25;;
69841;SDS011;57138;51.326;-0.068;2023-11-21T02:31:10;12.15;;;6.50;;
69841;SDS011;57138;51.326;-0.068;2023-11-21T02:33:37;11.05;;;4.82;;
69841;SDS011;57138;51.326;-0.068;2023-11-21T02:36:02;11.63;;;5.70;;
69841;SDS011;57138;51.326;-0.068;2023-11-21T02:38:28;11.23;;;6.30;;
69841;SDS011;57138;51.326;-0.068;2023-11-21T02:40:54;10.32;;;6.32;;
69841;SDS011;57138;51.326;-0.068;2023-11-21T02:43:20;12.43;;;7.72;;
69841;SDS011;57138;51.326;-0.068;2023-11-21T02:45:46;17.95;;;8.45;;
69841;SDS011;57138;51.326;-0.068;2023-11-21T02:48:12;17.67;;;9.20;;
69841;SDS011;57138;51.326;-0.068;2023-11-21T02:50:37;14.68;;;8.90;;
69841;SDS011;57138;51.326;-0.068;2023-11-21T02:53:03;15.88;;;9.73;;
69841;SDS011;57138;51.326;-0.068;2023-11-21T02:55:30;21.40;;;10.15;;
69841;SDS011;57138;51.326;-0.068;2023-11-21T02:57:59;23.63;;;11.35;;
69841;SDS011;57138;51.326;-0.068;2023-11-21T03:00:25;23.33;;;10.38;;
69841;SDS011;57138;51.326;-0.068;2023-11-21T03:02:50;19.20;;;9.93;;
69841;SDS011;57138;51.326;-0.068;2023-11-21T03:05:16;19.98;;;9.35;;
69841;SDS011;57138;51.326;-0.068;2023-11-21T03:07:41;17.95;;;9.65;;
69841;SDS011;57138;51.326;-0.068;2023-11-21T03:10:07;20.13;;;9.40;;
69841;SDS011;57138;51.326;-0.068;2023-11-21T03:12:37;19.58;;;9.45;;
69841;SDS011;57138;51.326;-0.068;2023-11-21T03:15:04;19.65;;;8.70;;
69841;SDS011;57138;51.326;-0.068;2023-11-21T03:17:30;13.57;;;6.07;;
69841;SDS011;57138;51.326;-0.068;2023-11-21T03:19:56;8.90;;;4.55;;
69841;SDS011;57138;51.326;-0.068;2023-11-21T03:22:22;7.88;;;2.85;;
69841;SDS011;57138;51.326;-0.068;2023-11-21T03:24:48;0.10;;;0.10;;
69841;SDS011;57138;51.326;-0.068;2023-11-21T03:27:14;0.10;;;0.10;;
69841;SDS011;57138;51.326;-0.068;2023-11-21T03:29:39;0.38;;;0.38;;
69841;SDS011;57138;51.326;-0.068;2023-11-21T03:32:04;0.10;;;0.10;;
69841;SDS011;57138;51.326;-0.068;2023-11-21T03:34:32;0.10;;;0.10;;
69841;SDS011;57138;51.326;-0.068;2023-11-21T03:36:57;0.10;;;0.10;;
69841;SDS011;57138;51.326;-0.068;2023-11-21T03:39:23;0.10;;;0.10;;
69841;SDS011;57138;51.326;-0.068;2023-11-21T03:41:50;0.10;;;0.10;;
69841;SDS011;57138;51.326;-0.068;2023-11-21T03:44:17;0.10;;;0.10;;
69841;SDS011;57138;51.326;-0.068;2023-11-21T03:46:43;0.22;;;0.22;;
69841;SDS011;57138;51.326;-0.068;2023-11-21T03:49:09;0.10;;;0.10;;
69841;SDS011;57138;51.326;-0.068;2023-11-21T03:51:34;0.10;;;0.10;;
69841;SDS011;57138;51.326;-0.068;2023-11-21T03:54:00;0.10;;;0.10;;
69841;SDS011;57138;51.326;-0.068;2023-11-21T03:56:25;0.20;;;0.20;;
69841;SDS011;57138;51.326;-0.068;2023-11-21T03:58:50;0.10;;;0.10;;
69841;SDS011;57138;51.326;-0.068;2023-11-21T04:01:22;0.10;;;0.10;;
69841;SDS011;57138;51.326;-0.068;2023-11-21T04:03:51;0.25;;;0.25;;
69841;SDS011;57138;51.326;-0.068;2023-11-21T04:06:17;0.10;;;0.10;;
69841;SDS011;57138;51.326;-0.068;2023-11-21T04:08:43;0.10;;;0.10;;
69841;SDS011;57138;51.326;-0.068;2023-11-21T04:11:09;0.20;;;0.20;;
69841;SDS011;57138;51.326;-0.068;2023-11-21T04:13:37;0.10;;;0.10;;
69841;SDS011;57138;51.326;-0.068;2023-11-21T04:16:06;0.80;;;0.80;;
69841;SDS011;57138;51.326;-0.068;2023-11-21T04:18:33;0.10;;;0.10;;
69841;SDS011;57138;51.326;-0.068;2023-11-21T04:20:59;0.10;;;0.10;;
69841;SDS011;57138;51.326;-0.068;2023-11-21T04:23:25;0.10;;;0.10;;
69841;SDS011;57138;51.326;-0.068;2023-11-21T04:25:51;0.10;;;0.10;;
69841;SDS011;57138;51.326;-0.068;2023-11-21T04:28:17;0.10;;;0.10;;
69841;SDS011;57138;51.326;-0.068;2023-11-21T04:30:44;0.10;;;0.10;;
69841;SDS011;57138;51.326;-0.068;2023-11-21T04:33:10;0.10;;;0.10;;
69841;SDS011;57138;51.326;-0.068;2023-11-21T04:35:35;0.10;;;0.10;;
69841;SDS011;57138;51.326;-0.068;2023-11-21T04:38:01;0.10;;;0.10;;
69841;SDS011;57138;51.326;-0.068;2023-11-21T04:40:26;0.10;;;0.10;;
69841;SDS011;57138;51.326;-0.068;2023-11-21T04:42:52;0.10;;;0.10;;
69841;SDS011;57138;51.326;-0.068;2023-11-21T04:45:17;0.10;;;0.10;;
69841;SDS011;57138;51.326;-0.068;2023-11-21T04:47:43;0.10;;;0.10;;
69841;SDS011;57138;51.326;-0.068;2023-11-21T04:50:08;0.10;;;0.10;;
69841;SDS011;57138;51.326;-0.068;2023-11-21T04:52:34;0.10;;;0.10;;
69841;SDS011;57138;51.326;-0.068;2023-11-21T04:54:59;0.10;;;0.10;;
69841;SDS011;57138;51.326;-0.068;2023-11-21T04:57:26;0.65;;;0.65;;
69841;SDS011;57138;51.326;-0.068;2023-11-21T04:59:53;0.10;;;0.10;;
69841;SDS011;57138;51.326;-0.068;2023-11-21T05:02:19;0.10;;;0.10;;
69841;SDS011;57138;51.326;-0.068;2023-11-21T05:04:46;0.10;;;0.10;;
69841;SDS011;57138;51.326;-0.068;2023-11-21T05:07:12;0.10;;;0.10;;
69841;SDS011;57138;51.326;-0.068;2023-11-21T05:09:41;0.10;;;0.10;;
69841;SDS011;57138;51.326;-0.068;2023-11-21T05:12:11;0.32;;;0.32;;
69841;SDS011;57138;51.326;-0.068;2023-11-21T05:14:37;0.10;;;0.10;;
69841;SDS011;57138;51.326;-0.068;2023-11-21T05:17:02;0.10;;;0.10;;
69841;SDS011;57138;51.326;-0.068;2023-11-21T05:19:29;0.17;;;0.17;;
69841;SDS011;57138;51.326;-0.068;2023-11-21T05:21:55;0.10;;;0.10;;
69841;SDS011;57138;51.326;-0.068;2023-11-21T05:24:20;0.10;;;0.10;;
69841;SDS011;57138;51.326;-0.068;2023-11-21T05:26:45;0.10;;;0.10;;
69841;SDS011;57138;51.326;-0.068;2023-11-21T05:29:11;0.10;;;0.10;;
69841;SDS011;57138;51.326;-0.068;2023-11-21T05:31:36;0.10;;;0.10;;
69841;SDS011;57138;51.326;-0.068;2023-11-21T05:34:03;0.10;;;0.10;;
69841;SDS011;57138;51.326;-0.068;2023-11-21T05:36:30;0.10;;;0.10;;
69841;SDS011;57138;51.326;-0.068;2023-11-21T05:38:55;0.10;;;0.10;;
69841;SDS011;57138;51.326;-0.068;2023-11-21T05:41:21;0.10;;;0.10;;
69841;SDS011;57138;51.326;-0.068;2023-11-21T05:43:46;0.10;;;0.10;;
69841;SDS011;57138;51.326;-0.068;2023-11-21T05:46:11;0.10;;;0.10;;
69841;SDS011;57138;51.326;-0.068;2023-11-21T05:48:38;0.10;;;0.10;;
69841;SDS011;57138;51.326;-0.068;2023-11-21T05:51:06;0.10;;;0.10;;
69841;SDS011;57138;51.326;-0.068;2023-11-21T05:53:33;0.10;;;0.10;;
69841;SDS011;57138;51.326;-0.068;2023-11-21T05:56:01;0.10;;;0.10;;
69841;SDS011;57138;51.326;-0.068;2023-11-21T05:58:28;0.10;;;0.10;;
69841;SDS011;57138;51.326;-0.068;2023-11-21T06:00:54;0.20;;;0.20;;
69841;SDS011;57138;51.326;-0.068;2023-11-21T06:03:20;0.10;;;0.10;;
69841;SDS011;57138;51.326;-0.068;2023-11-21T06:05:45;0.10;;;0.10;;
69841;SDS011;57138;51.326;-0.068;2023-11-21T06:08:10;0.40;;;0.40;;
69841;SDS011;57138;51.326;-0.068;2023-11-21T06:10:36;0.10;;;0.10;;
69841;SDS011;57138;51.326;-0.068;2023-11-21T06:13:01;0.10;;;0.10;;
69841;SDS011;57138;51.326;-0.068;2023-11-21T06:15:29;0.10;;;0.10;;
69841;SDS011;57138;51.326;-0.068;2023-11-21T06:17:54;0.10;;;0.10;;
69841;SDS011;57138;51.326;-0.068;2023-11-21T06:20:20;0.10;;;0.10;;
69841;SDS011;57138;51.326;-0.068;2023-11-21T06:22:46;0.10;;;0.10;;
69841;SDS011;57138;51.326;-0.068;2023-11-21T06:25:13;0.10;;;0.10;;
69841;SDS011;57138;51.326;-0.068;2023-11-21T06:27:43;0.10;;;0.10;;
69841;SDS011;57138;51.326;-0.068;2023-11-21T06:30:10;0.10;;;0.10;;
69841;SDS011;57138;51.326;-0.068;2023-11-21T06:32:37;0.10;;;0.10;;
69841;SDS011;57138;51.326;-0.068;2023-11-21T06:35:03;0.15;;;0.15;;
69841;SDS011;57138;51.326;-0.068;2023-11-21T06:37:31;0.10;;;0.10;;
69841;SDS011;57138;51.326;-0.068;2023-11-21T06:39:57;0.10;;;0.10;;
69841;SDS011;57138;51.326;-0.068;2023-11-21T06:42:24;0.10;;;0.10;;
69841;SDS011;57138;51.326;-0.068;2023-11-21T06:44:50;0.10;;;0.10;;
69841;SDS011;57138;51.326;-0.068;2023-11-21T06:47:21;0.10;;;0.10;;
69841;SDS011;57138;51.326;-0.068;2023-11-21T06:49:49;0.10;;;0.10;;
69841;SDS011;57138;51.326;-0.068;2023-11-21T06:52:15;0.10;;;0.10;;
69841;SDS011;57138;51.326;-0.068;2023-11-21T06:54:41;0.20;;;0.20;;
69841;SDS011;57138;51.326;-0.068;2023-11-21T06:57:06;0.10;;;0.10;;
69841;SDS011;57138;51.326;-0.068;2023-11-21T06:59:32;0.10;;;0.10;;
69841;SDS011;57138;51.326;-0.068;2023-11-21T07:01:58;0.10;;;0.10;;
69841;SDS011;57138;51.326;-0.068;2023-11-21T07:04:23;0.10;;;0.10;;
69841;SDS011;57138;51.326;-0.068;2023-11-21T07:06:50;0.10;;;0.10;;
69841;SDS011;57138;51.326;-0.068;2023-11-21T07:09:16;0.10;;;0.10;;
69841;SDS011;57138;51.326;-0.068;2023-11-21T07:11:42;2.58;;;0.68;;
69841;SDS011;57138;51.326;-0.068;2023-11-21T07:14:07;0.10;;;0.10;;
69841;SDS011;57138;51.326;-0.068;2023-11-21T07:16:36;0.20;;;0.20;;
69841;SDS011;57138;51.326;-0.068;2023-11-21T07:19:06;0.10;;;0.10;;
69841;SDS011;57138;51.326;-0.068;2023-11-21T07:21:35;0.10;;;0.10;;
69841;SDS011;57138;51.326;-0.068;2023-11-21T07:24:05;0.17;;;0.17;;
69841;SDS011;57138;51.326;-0.068;2023-11-21T07:26:31;0.10;;;0.10;;
69841;SDS011;57138;51.326;-0.068;2023-11-21T07:28:58;0.10;;;0.10;;
69841;SDS011;57138;51.326;-0.068;2023-11-21T07:31:24;0.10;;;0.10;;
69841;SDS011;57138;51.326;-0.068;2023-11-21T07:33:50;0.10;;;0.10;;
69841;SDS011;57138;51.326;-0.068;2023-11-21T07:36:16;0.10;;;0.10;;
69841;SDS011;57138;51.326;-0.068;2023-11-21T07:38:46;0.10;;;0.10;;
69841;SDS011;57138;51.326;-0.068;2023-11-21T07:41:11;0.20;;;0.20;;
69841;SDS011;57138;51.326;-0.068;2023-11-21T07:43:40;0.10;;;0.10;;
69841;SDS011;57138;51.326;-0.068;2023-11-21T07:46:06;0.30;;;0.30;;
69841;SDS011;57138;51.326;-0.068;2023-11-21T07:48:33;0.10;;;0.10;;
69841;SDS011;57138;51.326;-0.068;2023-11-21T07:51:03;0.10;;;0.10;;
69841;SDS011;57138;51.326;-0.068;2023-11-21T07:53:29;0.30;;;0.30;;
69841;SDS011;57138;51.326;-0.068;2023-11-21T07:55:58;0.10;;;0.10;;
69841;SDS011;57138;51.326;-0.068;2023-11-21T07:58:28;0.10;;;0.10;;
69841;SDS011;57138;51.326;-0.068;2023-11-21T08:00:53;0.10;;;0.10;;
69841;SDS011;57138;51.326;-0.068;2023-11-21T08:03:19;0.10;;;0.10;;
69841;SDS011;57138;51.326;-0.068;2023-11-21T08:05:44;0.20;;;0.20;;
69841;SDS011;57138;51.326;-0.068;2023-11-21T08:08:10;0.20;;;0.20;;
69841;SDS011;57138;51.326;-0.068;2023-11-21T08:10:35;0.10;;;0.10;;
69841;SDS011;57138;51.326;-0.068;2023-11-21T08:13:01;0.10;;;0.10;;
69841;SDS011;57138;51.326;-0.068;2023-11-21T08:15:27;0.10;;;0.10;;
69841;SDS011;57138;51.326;-0.068;2023-11-21T08:17:52;0.10;;;0.10;;
69841;SDS011;57138;51.326;-0.068;2023-11-21T08:20:18;0.10;;;0.10;;
69841;SDS011;57138;51.326;-0.068;2023-11-21T08:22:43;0.20;;;0.20;;
69841;SDS011;57138;51.326;-0.068;2023-11-21T08:25:09;0.20;;;0.20;;
69841;SDS011;57138;51.326;-0.068;2023-11-21T08:27:35;0.20;;;0.20;;
69841;SDS011;57138;51.326;-0.068;2023-11-21T08:30:01;0.10;;;0.10;;
69841;SDS011;57138;51.326;-0.068;2023-11-21T08:32:28;0.20;;;0.20;;
69841;SDS011;57138;51.326;-0.068;2023-11-21T08:34:55;0.10;;;0.10;;
69841;SDS011;57138;51.326;-0.068;2023-11-21T08:37:21;0.15;;;0.15;;
69841;SDS011;57138;51.326;-0.068;2023-11-21T08:39:47;0.10;;;0.10;;
69841;SDS011;57138;51.326;-0.068;2023-11-21T08:42:13;0.10;;;0.10;;
69841;SDS011;57138;51.326;-0.068;2023-11-21T08:44:39;0.10;;;0.10;;
69841;SDS011;57138;51.326;-0.068;2023-11-21T08:47:05;0.10;;;0.10;;
69841;SDS011;57138;51.326;-0.068;2023-11-21T08:49:31;0.10;;;0.10;;
69841;SDS011;57138;51.326;-0.068;2023-11-21T08:51:57;0.20;;;0.20;;
69841;SDS011;57138;51.326;-0.068;2023-11-21T08:54:24;0.20;;;0.20;;
69841;SDS011;57138;51.326;-0.068;2023-11-21T08:56:50;0.10;;;0.10;;
69841;SDS011;57138;51.326;-0.068;2023-11-21T08:59:16;0.13;;;0.13;;
69841;SDS011;57138;51.326;-0.068;2023-11-21T09:01:42;0.10;;;0.10;;
69841;SDS011;57138;51.326;-0.068;2023-11-21T09:04:07;0.32;;;0.32;;
69841;SDS011;57138;51.326;-0.068;2023-11-21T09:06:33;0.10;;;0.10;;
69841;SDS011;57138;51.326;-0.068;2023-11-21T09:08:58;0.10;;;0.10;;
69841;SDS011;57138;51.326;-0.068;2023-11-21T09:11:24;0.20;;;0.20;;
69841;SDS011;57138;51.326;-0.068;2023-11-21T09:13:52;0.10;;;0.10;;
69841;SDS011;57138;51.326;-0.068;2023-11-21T09:16:20;0.10;;;0.10;;
69841;SDS011;57138;51.326;-0.068;2023-11-21T09:18:46;0.13;;;0.13;;
69841;SDS011;57138;51.326;-0.068;2023-11-21T09:21:11;0.10;;;0.10;;
69841;SDS011;57138;51.326;-0.068;2023-11-21T09:23:37;0.10;;;0.10;;
69841;SDS011;57138;51.326;-0.068;2023-11-21T09:26:02;0.10;;;0.10;;
69841;SDS011;57138;51.326;-0.068;2023-11-21T09:28:28;0.10;;;0.10;;
69841;SDS011;57138;51.326;-0.068;2023-11-21T09:30:54;0.10;;;0.10;;
69841;SDS011;57138;51.326;-0.068;2023-11-21T09:33:19;0.10;;;0.10;;
69841;SDS011;57138;51.326;-0.068;2023-11-21T09:35:47;0.10;;;0.10;;
69841;SDS011;57138;51.326;-0.068;2023-11-21T09:38:13;0.10;;;0.10;;
69841;SDS011;57138;51.326;-0.068;2023-11-21T09:40:39;0.17;;;0.17;;
69841;SDS011;57138;51.326;-0.068;2023-11-21T09:43:08;0.10;;;0.10;;
69841;SDS011;57138;51.326;-0.068;2023-11-21T09:45:41;0.20;;;0.20;;
69841;SDS011;57138;51.326;-0.068;2023-11-21T09:48:10;0.13;;;0.13;;
69841;SDS011;57138;51.326;-0.068;2023-11-21T09:50:36;0.20;;;0.20;;
69841;SDS011;57138;51.326;-0.068;2023-11-21T09:53:14;0.10;;;0.10;;
69841;SDS011;57138;51.326;-0.068;2023-11-21T09:55:52;0.10;;;0.10;;
69841;SDS011;57138;51.326;-0.068;2023-11-21T09:58:19;0.28;;;0.28;;
69841;SDS011;57138;51.326;-0.068;2023-11-21T10:00:48;0.10;;;0.10;;
69841;SDS011;57138;51.326;-0.068;2023-11-21T10:03:14;0.10;;;0.10;;
69841;SDS011;57138;51.326;-0.068;2023-11-21T10:05:42;0.10;;;0.10;;
69841;SDS011;57138;51.326;-0.068;2023-11-21T10:08:09;0.10;;;0.10;;
69841;SDS011;57138;51.326;-0.068;2023-11-21T10:10:36;0.10;;;0.10;;
69841;SDS011;57138;51.326;-0.068;2023-11-21T10:13:04;0.10;;;0.10;;
69841;SDS011;57138;51.326;-0.068;2023-11-21T10:15:31;1.25;;;0.47;;
69841;SDS011;57138;51.326;-0.068;2023-11-21T10:17:59;0.10;;;0.10;;
69841;SDS011;57138;51.326;-0.068;2023-11-21T10:20:27;0.13;;;0.13;;
69841;SDS011;57138;51.326;-0.068;2023-11-21T10:22:54;0.10;;;0.10;;
69841;SDS011;57138;51.326;-0.068;2023-11-21T10:25:21;0.10;;;0.10;;
69841;SDS011;57138;51.326;-0.068;2023-11-21T10:27:48;0.10;;;0.10;;
69841;SDS011;57138;51.326;-0.068;2023-11-21T10:30:17;0.10;;;0.10;;
69841;SDS011;57138;51.326;-0.068;2023-11-21T10:32:43;0.10;;;0.10;;
69841;SDS011;57138;51.326;-0.068;2023-11-21T10:35:09;0.10;;;0.10;;
69841;SDS011;57138;51.326;-0.068;2023-11-21T10:37:35;0.10;;;0.10;;
69841;SDS011;57138;51.326;-0.068;2023-11-21T10:40:04;0.10;;;0.10;;
69841;SDS011;57138;51.326;-0.068;2023-11-21T10:42:32;0.10;;;0.10;;
69841;SDS011;57138;51.326;-0.068;2023-11-21T10:44:57;0.10;;;0.10;;
69841;SDS011;57138;51.326;-0.068;2023-11-21T10:47:23;0.10;;;0.10;;
69841;SDS011;57138;51.326;-0.068;2023-11-21T10:49:49;0.10;;;0.10;;
69841;SDS011;57138;51.326;-0.068;2023-11-21T10:52:14;0.20;;;0.20;;
69841;SDS011;57138;51.326;-0.068;2023-11-21T10:54:46;0.10;;;0.10;;
69841;SDS011;57138;51.326;-0.068;2023-11-21T10:57:13;0.10;;;0.10;;
69841;SDS011;57138;51.326;-0.068;2023-11-21T10:59:43;0.10;;;0.10;;
69841;SDS011;57138;51.326;-0.068;2023-11-21T11:02:21;0.10;;;0.10;;
69841;SDS011;57138;51.326;-0.068;2023-11-21T11:04:50;0.20;;;0.20;;
69841;SDS011;57138;51.326;-0.068;2023-11-21T11:07:17;0.10;;;0.10;;
69841;SDS011;57138;51.326;-0.068;2023-11-21T11:09:44;0.10;;;0.10;;
69841;SDS011;57138;51.326;-0.068;2023-11-21T11:12:10;0.10;;;0.10;;
69841;SDS011;57138;51.326;-0.068;2023-11-21T11:14:36;0.10;;;0.10;;
69841;SDS011;57138;51.326;-0.068;2023-11-21T11:17:06;0.10;;;0.10;;
69841;SDS011;57138;51.326;-0.068;2023-11-21T11:19:34;0.17;;;0.17;;
69841;SDS011;57138;51.326;-0.068;2023-11-21T11:22:15;0.10;;;0.10;;
69841;SDS011;57138;51.326;-0.068;2023-11-21T11:28:04;0.15;;;0.15;;
69841;SDS011;57138;51.326;-0.068;2023-11-21T11:30:44;0.10;;;0.10;;
69841;SDS011;57138;51.326;-0.068;2023-11-21T11:38:36;0.10;;;0.10;;
69841;SDS011;57138;51.326;-0.068;2023-11-21T11:41:02;0.10;;;0.10;;
69841;SDS011;57138;51.326;-0.068;2023-11-21T11:43:29;0.10;;;0.10;;
69841;SDS011;57138;51.326;-0.068;2023-11-21T11:45:58;0.10;;;0.10;;
69841;SDS011;57138;51.326;-0.068;2023-11-21T11:48:24;0.10;;;0.10;;
69841;SDS011;57138;51.326;-0.068;2023-11-21T11:51:03;0.10;;;0.10;;
69841;SDS011;57138;51.326;-0.068;2023-11-21T11:53:36;0.43;;;0.43;;
69841;SDS011;57138;51.326;-0.068;2023-11-21T11:58:55;0.13;;;0.13;;
69841;SDS011;57138;51.326;-0.068;2023-11-21T12:01:22;0.10;;;0.10;;
69841;SDS011;57138;51.326;-0.068;2023-11-21T12:06:41;0.15;;;0.15;;
69841;SDS011;57138;51.326;-0.068;2023-11-21T12:09:12;0.10;;;0.10;;
69841;SDS011;57138;51.326;-0.068;2023-11-21T12:11:43;0.20;;;0.20;;
69841;SDS011;57138;51.326;-0.068;2023-11-21T12:14:09;0.10;;;0.10;;
69841;SDS011;57138;51.326;-0.068;2023-11-21T12:16:35;0.20;;;0.20;;
69841;SDS011;57138;51.326;-0.068;2023-11-21T12:19:00;0.10;;;0.10;;
69841;SDS011;57138;51.326;-0.068;2023-11-21T12:21:26;0.20;;;0.20;;
69841;SDS011;57138;51.326;-0.068;2023-11-21T12:23:52;0.20;;;0.20;;
69841;SDS011;57138;51.326;-0.068;2023-11-21T12:26:18;0.10;;;0.10;;
69841;SDS011;57138;51.326;-0.068;2023-11-21T12:28:43;0.40;;;0.40;;
69841;SDS011;57138;51.326;-0.068;2023-11-21T12:31:08;0.10;;;0.10;;
69841;SDS011;57138;51.326;-0.068;2023-11-21T12:33:35;0.10;;;0.10;;
69841;SDS011;57138;51.326;-0.068;2023-11-21T12:36:01;0.10;;;0.10;;
69841;SDS011;57138;51.326;-0.068;2023-11-21T12:38:33;0.10;;;0.10;;
69841;SDS011;57138;51.326;-0.068;2023-11-21T12:41:00;0.10;;;0.10;;
69841;SDS011;57138;51.326;-0.068;2023-11-21T12:43:25;0.10;;;0.10;;
69841;SDS011;57138;51.326;-0.068;2023-11-21T12:45:51;0.17;;;0.17;;
69841;SDS011;57138;51.326;-0.068;2023-11-21T12:48:34;0.10;;;0.10;;
69841;SDS011;57138;51.326;-0.068;2023-11-21T12:51:03;0.10;;;0.10;;
69841;SDS011;57138;51.326;-0.068;2023-11-21T12:53:29;0.20;;;0.20;;
69841;SDS011;57138;51.326;-0.068;2023-11-21T12:56:01;0.10;;;0.10;;
69841;SDS011;57138;51.326;-0.068;2023-11-21T12:58:34;0.10;;;0.10;;
69841;SDS011;57138;51.326;-0.068;2023-11-21T13:01:00;0.10;;;0.10;;
69841;SDS011;57138;51.326;-0.068;2023-11-21T13:03:29;0.10;;;0.10;;
69841;SDS011;57138;51.326;-0.068;2023-11-21T13:05:55;0.15;;;0.15;;
69841;SDS011;57138;51.326;-0.068;2023-11-21T13:08:23;0.20;;;0.20;;
69841;SDS011;57138;51.326;-0.068;2023-11-21T13:10:53;0.10;;;0.10;;
69841;SDS011;57138;51.326;-0.068;2023-11-21T13:13:21;0.38;;;0.38;;
69841;SDS011;57138;51.326;-0.068;2023-11-21T13:15:51;0.20;;;0.20;;
69841;SDS011;57138;51.326;-0.068;2023-11-21T13:18:23;0.10;;;0.10;;
69841;SDS011;57138;51.326;-0.068;2023-11-21T13:20:50;0.10;;;0.10;;
69841;SDS011;57138;51.326;-0.068;2023-11-21T13:23:15;0.20;;;0.20;;
69841;SDS011;57138;51.326;-0.068;2023-11-21T13:25:41;0.40;;;0.40;;
69841;SDS011;57138;51.326;-0.068;2023-11-21T13:28:08;0.10;;;0.10;;
69841;SDS011;57138;51.326;-0.068;2023-11-21T13:30:38;0.10;;;0.10;;
69841;SDS011;57138;51.326;-0.068;2023-11-21T13:33:05;0.10;;;0.10;;
69841;SDS011;57138;51.326;-0.068;2023-11-21T13:35:36;0.10;;;0.10;;
69841;SDS011;57138;51.326;-0.068;2023-11-21T13:38:07;0.10;;;0.10;;
69841;SDS011;57138;51.326;-0.068;2023-11-21T13:40:34;0.10;;;0.10;;
69841;SDS011;57138;51.326;-0.068;2023-11-21T13:43:10;0.10;;;0.10;;
69841;SDS011;57138;51.326;-0.068;2023-11-21T13:45:39;0.10;;;0.10;;
69841;SDS011;57138;51.326;-0.068;2023-11-21T13:48:06;0.10;;;0.10;;
69841;SDS011;57138;51.326;-0.068;2023-11-21T13:50:44;0.10;;;0.10;;
69841;SDS011;57138;51.326;-0.068;2023-11-21T13:53:20;0.10;;;0.10;;
69841;SDS011;57138;51.326;-0.068;2023-11-21T13:55:49;0.10;;;0.10;;
69841;SDS011;57138;51.326;-0.068;2023-11-21T13:58:16;0.10;;;0.10;;
69841;SDS011;57138;51.326;-0.068;2023-11-21T14:00:48;0.10;;;0.10;;
69841;SDS011;57138;51.326;-0.068;2023-11-21T14:03:22;0.10;;;0.10;;
69841;SDS011;57138;51.326;-0.068;2023-11-21T14:05:49;0.10;;;0.10;;
69841;SDS011;57138;51.326;-0.068;2023-11-21T14:08:20;0.10;;;0.10;;
69841;SDS011;57138;51.326;-0.068;2023-11-21T14:10:47;0.10;;;0.10;;
69841;SDS011;57138;51.326;-0.068;2023-11-21T14:13:20;0.10;;;0.10;;
69841;SDS011;57138;51.326;-0.068;2023-11-21T14:15:48;0.10;;;0.10;;
69841;SDS011;57138;51.326;-0.068;2023-11-21T14:18:16;0.10;;;0.10;;
69841;SDS011;57138;51.326;-0.068;2023-11-21T14:20:51;0.28;;;0.28;;
69841;SDS011;57138;51.326;-0.068;2023-11-21T14:23:17;0.10;;;0.10;;
69841;SDS011;57138;51.326;-0.068;2023-11-21T14:25:43;0.10;;;0.10;;
69841;SDS011;57138;51.326;-0.068;2023-11-21T14:28:08;0.10;;;0.10;;
69841;SDS011;57138;51.326;-0.068;2023-11-21T14:30:37;0.10;;;0.10;;
69841;SDS011;57138;51.326;-0.068;2023-11-21T14:33:05;1.13;;;0.68;;
69841;SDS011;57138;51.326;-0.068;2023-11-21T14:35:33;0.10;;;0.10;;
69841;SDS011;57138;51.326;-0.068;2023-11-21T14:37:59;0.10;;;0.10;;
69841;SDS011;57138;51.326;-0.068;2023-11-21T14:40:26;0.10;;;0.10;;
69841;SDS011;57138;51.326;-0.068;2023-11-21T14:42:56;0.10;;;0.10;;